Flight Track Log - Related Links

Times and Time Zones

All times are in EDT time to prevent confusion due to time zone crossing. See the SKW4664 flight status page for this flight to view local times or setup timezone preferences in your user account.

Time Position Orientation Groundspeed Altitude Reporting Facility
EDT Latitude Longitude Course Direction KTS MPH feet Rate Location/Type
Thu 10:37:43 AM 44.8333 -93.2333 235° Southwest 163 188 2,200  Level Minneapolis TRACON
Thu 10:38:18 AM 44.8161 -93.2481 211° Southwest 182 209 3,300 1,485 Climbing Minneapolis Center
Thu 10:39:20 AM 44.7858 -93.3086 235° Southwest 206 237 4,600 1,597 Climbing Minneapolis Center
Thu 10:40:00 AM 44.7002 -93.5997 232° Southwest  Level FlightAware Approximate
Thu 10:40:22 AM 44.7542 -93.3933 242° Southwest 248 285 6,600  Level Minneapolis Center
Thu 10:41:00 AM 44.6352 -93.7297 235° Southwest  Level FlightAware Approximate
Thu 10:41:24 AM 44.7203 -93.4833 242° Southwest 260 299 8,900  Level Minneapolis Center
Thu 10:42:00 AM 44.5652 -93.8525 230° Southwest  Level FlightAware Approximate
Thu 10:42:26 AM 44.6778 -93.5939 242° Southwest 273 314 10,800  Level Minneapolis Center
Thu 10:43:00 AM 44.4951 -93.9766 235° Southwest  Level FlightAware Approximate
Thu 10:43:28 AM 44.6406 -93.6989 244° Southwest 299 344 12,700  Level Minneapolis Center
Thu 10:44:30 AM 44.6050 -93.8064 245° Southwest 308 354 13,900 1,210 Climbing Minneapolis Center
Thu 10:45:32 AM 44.5675 -93.9194 245° Southwest 322 371 15,200 1,210 Climbing Minneapolis Center
Thu 10:46:34 AM 44.5294 -94.0344 245° Southwest 326 375 16,400 871 Climbing Minneapolis Center
Thu 10:47:36 AM 44.4886 -94.1544 245° Southwest 343 395 17,000 624 Climbing Minneapolis Center
Thu 10:48:39 AM 44.4389 -94.3058 245° Southwest 358 412 17,700 720 Climbing Minneapolis Center
Thu 10:49:41 AM 44.3972 -94.4336 246° West 360 414 18,500 629 Climbing Minneapolis Center
Thu 10:50:43 AM 44.3536 -94.5636 245° Southwest 369 425 19,000 484 Climbing Minneapolis Center
Thu 10:51:45 AM 44.3022 -94.7125 244° Southwest 378 435 19,500 484 Climbing Minneapolis Center
Thu 10:52:47 AM 44.2558 -94.8456 244° Southwest 383 441 20,000 484 Climbing Minneapolis Center
Thu 10:53:49 AM 44.2092 -94.9800 244° Southwest 385 443 20,500 484 Climbing Minneapolis Center
Thu 10:54:51 AM 44.1628 -95.1142 244° Southwest 385 443 21,000 532 Climbing Minneapolis Center
Thu 10:55:53 AM 44.1167 -95.2500 245° Southwest 387 445 21,600 484 Climbing Minneapolis Center
Thu 10:56:55 AM 44.0683 -95.3856 244° Southwest 390 449 22,000 194 Climbing Minneapolis Center
Thu 10:57:57 AM 44.0233 -95.5161 244° Southwest 380 437 22,000  Level Minneapolis Center
Thu 10:58:59 AM 43.9697 -95.6672 244° Southwest 367 422 22,000 -677 Level Minneapolis Center
Thu 11:00:01 AM 43.9258 -95.7903 244° Southwest 357 411 20,600 -1,920 Descending Minneapolis Center
Thu 11:01:04 AM 43.8811 -95.9164 244° Southwest 360 414 18,000 -3,024 Descending Minneapolis Center
Thu 11:02:06 AM 43.8364 -96.0422 244° Southwest 361 415 14,300 -3,823 Descending Minneapolis Center
Thu 11:03:08 AM 43.7922 -96.1633 243° Southwest 355 409 10,100 -2,952 Descending Minneapolis Center
Thu 11:04:10 AM 43.7594 -96.2564 244° Southwest 302 348 8,200 -1,839 Descending Minneapolis Center
Thu 11:05:12 AM 43.7281 -96.3453 244° Southwest 272 313 6,300 -1,887 Descending Minneapolis Center
Thu 11:06:14 AM 43.7253 -96.4628 268° West 260 299 4,300 -1,548 Descending Minneapolis Center
Thu 11:07:16 AM 43.7144 -96.5533 261° West 250 288 3,100 -629 Descending Minneapolis Center
Thu 11:08:18 AM 43.6811 -96.6228 236° Southwest 231 266 3,000 -48 Descending Minneapolis Center
Thu 11:09:20 AM 43.6558 -96.6761 237° Southwest 198 228 3,000  Level Minneapolis Center

Login

Don't have an account? Register now (free) for customized features, flight alerts, and more!